createdAt,value
2022-11-01T00:00:06.400Z,40.10
2022-11-01T00:02:54.601Z,63.10
2022-11-01T00:05:22.821Z,35.30
2022-11-01T00:07:54.065Z,19.90
2022-11-01T00:10:22.425Z,23.60
2022-11-01T00:12:50.703Z,19.80
2022-11-01T00:15:18.986Z,23.30
2022-11-01T00:17:47.268Z,21.80
2022-11-01T00:20:15.717Z,18.40
2022-11-01T00:22:43.962Z,18.50
2022-11-01T00:25:12.242Z,17.80
2022-11-01T00:27:40.510Z,20.00
2022-11-01T00:30:09.165Z,18.40
2022-11-01T00:32:37.590Z,19.50
2022-11-01T00:35:06.144Z,16.00
2022-11-01T00:37:34.610Z,18.00
2022-11-01T00:40:02.852Z,18.70
2022-11-01T00:42:31.122Z,21.90
2022-11-01T00:44:59.845Z,20.40
2022-11-01T00:47:28.064Z,23.10
2022-11-01T00:49:56.284Z,22.90
2022-11-01T00:52:24.521Z,21.20
2022-11-01T00:54:52.845Z,22.90
2022-11-01T00:57:21.117Z,25.50
2022-11-01T00:59:49.410Z,26.70
2022-11-01T01:02:17.924Z,25.60
2022-11-01T01:04:46.318Z,24.90
2022-11-01T01:07:14.675Z,27.60
2022-11-01T01:09:43.249Z,24.00
2022-11-01T01:12:11.765Z,25.30
2022-11-01T01:14:40.145Z,24.20
2022-11-01T01:17:08.507Z,27.60
2022-11-01T01:19:36.720Z,29.50
2022-11-01T01:22:04.987Z,25.80
2022-11-01T01:24:33.872Z,25.30
2022-11-01T01:27:03.486Z,27.90
2022-11-01T01:29:31.719Z,29.50
2022-11-01T01:31:59.919Z,28.10
2022-11-01T01:34:28.184Z,27.40
2022-11-01T01:36:56.483Z,27.20
2022-11-01T01:39:24.719Z,28.30
2022-11-01T01:41:55.748Z,28.80
2022-11-01T01:44:52.150Z,26.50
2022-11-01T01:47:27.544Z,30.40
2022-11-01T01:50:02.784Z,33.00
2022-11-01T01:52:37.973Z,26.90
2022-11-01T01:55:10.097Z,30.00
2022-11-01T01:57:40.612Z,27.00
2022-11-01T02:00:09.762Z,27.10
2022-11-01T02:02:41.638Z,25.20
2022-11-01T02:05:29.000Z,27.90
2022-11-01T02:07:58.530Z,25.30
2022-11-01T02:10:30.090Z,26.30
2022-11-01T02:12:58.541Z,26.70
2022-11-01T02:15:40.424Z,25.90
2022-11-01T02:18:33.056Z,27.20
2022-11-01T02:21:39.146Z,23.90
2022-11-01T02:24:47.273Z,24.20
2022-11-01T02:27:50.836Z,24.40
2022-11-01T02:30:21.236Z,29.80
2022-11-01T02:33:18.894Z,25.60
2022-11-01T02:36:05.960Z,24.70
2022-11-01T02:38:52.552Z,30.80
2022-11-01T02:41:32.867Z,79.40
2022-11-01T02:44:09.826Z,39.90
2022-11-01T02:46:59.531Z,79.10
2022-11-01T02:50:08.100Z,35.70
2022-11-01T02:52:40.514Z,31.90
2022-11-01T02:55:30.621Z,51.30
2022-11-01T02:58:04.489Z,29.80
2022-11-01T03:00:36.320Z,30.00
2022-11-01T03:03:16.734Z,26.10
2022-11-01T03:06:04.253Z,24.50
2022-11-01T03:08:44.361Z,23.50
2022-11-01T03:11:18.593Z,28.90
2022-11-01T03:14:26.972Z,26.00
2022-11-01T03:17:23.221Z,33.30
2022-11-01T03:20:59.334Z,30.00
2022-11-01T03:23:38.049Z,30.30
2022-11-01T03:26:12.065Z,37.90
2022-11-01T03:28:44.788Z,43.00
2022-11-01T03:31:22.992Z,38.60
2022-11-01T03:33:56.520Z,37.90
2022-11-01T03:36:32.394Z,36.30
2022-11-01T03:39:11.423Z,38.60
2022-11-01T03:41:45.307Z,37.40
2022-11-01T03:44:14.404Z,38.90
2022-11-01T03:46:43.163Z,43.00
2022-11-01T03:49:20.057Z,38.00
2022-11-01T03:51:48.622Z,40.40
2022-11-01T03:54:16.847Z,41.30
2022-11-01T03:56:45.182Z,39.70
2022-11-01T03:59:13.401Z,43.60
2022-11-01T04:01:41.842Z,44.30
2022-11-01T04:04:10.348Z,41.20
2022-11-01T04:06:38.688Z,46.20
2022-11-01T04:09:07.293Z,43.10
2022-11-01T04:11:35.719Z,45.60
2022-11-01T04:14:36.186Z,37.10
2022-11-01T04:17:22.693Z,41.40
2022-11-01T04:20:09.438Z,46.70
2022-11-01T04:22:39.385Z,45.20
2022-11-01T04:25:08.055Z,38.90
2022-11-01T04:27:36.251Z,41.40
2022-11-01T04:30:04.962Z,47.50
2022-11-01T04:32:33.195Z,48.10
2022-11-01T04:35:01.521Z,51.80
2022-11-01T04:37:31.584Z,43.30
2022-11-01T04:39:59.818Z,44.20
2022-11-01T04:42:28.045Z,41.50
2022-11-01T04:44:56.257Z,43.50
2022-11-01T04:47:24.469Z,40.30
2022-11-01T04:49:52.734Z,44.50
2022-11-01T04:52:21.262Z,45.20
2022-11-01T04:54:49.583Z,47.80
2022-11-01T04:57:24.334Z,45.90
2022-11-01T04:59:54.388Z,50.20
2022-11-01T05:02:24.398Z,47.20
2022-11-01T05:04:52.694Z,45.80
2022-11-01T05:07:20.967Z,44.20
2022-11-01T05:09:49.270Z,41.50
2022-11-01T05:12:19.210Z,43.90
2022-11-01T05:14:47.430Z,39.40
2022-11-01T05:17:15.861Z,37.90
2022-11-01T05:19:44.069Z,42.80
2022-11-01T05:22:12.329Z,46.40
2022-11-01T05:24:43.610Z,39.10
2022-11-01T05:27:11.867Z,34.90
2022-11-01T05:29:40.116Z,50.80
2022-11-01T05:32:08.335Z,36.20
2022-11-01T05:34:36.593Z,27.10
2022-11-01T05:37:04.816Z,30.50
2022-11-01T05:39:33.222Z,37.90
2022-11-01T05:42:02.976Z,37.90
2022-11-01T05:44:31.461Z,35.20
2022-11-01T05:47:03.301Z,37.70
2022-11-01T05:49:32.439Z,36.40
2022-11-01T05:52:00.968Z,40.00
2022-11-01T05:54:29.709Z,30.60
2022-11-01T05:56:58.030Z,34.50
2022-11-01T05:59:26.298Z,36.00
2022-11-01T06:01:55.022Z,43.20
2022-11-01T06:04:25.548Z,37.60
2022-11-01T06:06:54.474Z,32.60
2022-11-01T06:09:23.315Z,31.40
2022-11-01T06:11:53.110Z,32.20
2022-11-01T06:14:28.202Z,29.00
2022-11-01T06:16:57.565Z,34.50
2022-11-01T06:19:26.493Z,41.40
2022-11-01T06:21:55.049Z,32.20
2022-11-01T06:24:23.388Z,32.90
2022-11-01T06:26:51.751Z,33.10
2022-11-01T06:29:20.473Z,31.60
2022-11-01T06:31:48.805Z,32.10
2022-11-01T06:34:17.152Z,29.30
2022-11-01T06:36:45.439Z,31.40
2022-11-01T06:39:13.718Z,30.70
2022-11-01T06:41:42.246Z,27.90
2022-11-01T06:44:10.628Z,30.20
2022-11-01T06:46:39.038Z,26.10
2022-11-01T06:49:07.455Z,28.30
2022-11-01T06:51:35.853Z,26.30
2022-11-01T06:54:04.266Z,32.20
2022-11-01T06:56:33.106Z,30.00
2022-11-01T06:59:01.662Z,26.40
2022-11-01T07:01:30.136Z,39.50
2022-11-01T07:04:01.642Z,36.20
2022-11-01T07:06:31.094Z,29.90
2022-11-01T07:09:00.399Z,30.40
2022-11-01T07:11:31.428Z,25.40
2022-11-01T07:14:00.305Z,26.10
2022-11-01T07:16:29.016Z,28.40
2022-11-01T07:18:57.444Z,27.10
2022-11-01T07:21:25.886Z,26.50
2022-11-01T07:23:54.328Z,25.50
2022-11-01T07:26:22.675Z,28.30
2022-11-01T07:28:50.886Z,27.20
2022-11-01T07:31:19.167Z,28.50
2022-11-01T07:33:47.420Z,26.70
2022-11-01T07:36:15.886Z,27.80
2022-11-01T07:38:44.111Z,29.20
2022-11-01T07:41:12.555Z,31.00
2022-11-01T07:43:40.888Z,25.50
2022-11-01T07:46:09.513Z,21.70
2022-11-01T07:48:37.765Z,26.90
2022-11-01T07:51:07.529Z,24.80
2022-11-01T07:53:35.979Z,22.20
2022-11-01T07:56:04.605Z,26.40
2022-11-01T07:58:33.715Z,21.10
2022-11-01T08:01:02.096Z,24.90
2022-11-01T08:03:31.038Z,28.30
2022-11-01T08:05:59.345Z,21.30
2022-11-01T08:08:27.584Z,21.90
2022-11-01T08:10:56.126Z,20.70
2022-11-01T08:13:25.276Z,22.10
2022-11-01T08:15:54.139Z,22.30
2022-11-01T08:18:24.383Z,23.90
2022-11-01T08:20:54.259Z,23.00
2022-11-01T08:23:24.999Z,24.80
2022-11-01T08:25:53.288Z,22.50
2022-11-01T08:28:22.913Z,21.90
2022-11-01T08:30:51.577Z,22.10
2022-11-01T08:33:20.211Z,20.50
2022-11-01T08:35:50.672Z,22.00
2022-11-01T08:38:19.652Z,22.40
2022-11-01T08:40:48.328Z,22.40
2022-11-01T08:43:17.733Z,21.20
2022-11-01T08:45:46.334Z,21.70
2022-11-01T08:48:14.589Z,21.00
2022-11-01T08:50:43.291Z,18.90
2022-11-01T08:53:14.295Z,23.00
2022-11-01T08:55:42.726Z,19.00
2022-11-01T08:58:11.364Z,19.50
2022-11-01T09:00:39.656Z,17.40
2022-11-01T09:03:07.953Z,17.50
2022-11-01T09:05:36.294Z,18.30
2022-11-01T09:08:05.263Z,17.80
2022-11-01T09:10:34.178Z,16.90
2022-11-01T09:13:02.844Z,16.10
2022-11-01T09:15:31.775Z,16.30
2022-11-01T09:18:06.132Z,15.90
2022-11-01T09:20:34.527Z,16.60
2022-11-01T09:23:03.258Z,16.50
2022-11-01T09:25:31.922Z,14.40
2022-11-01T09:28:00.590Z,14.90
2022-11-01T09:30:30.300Z,14.80
2022-11-01T09:32:58.523Z,13.60
2022-11-01T09:35:26.715Z,14.10
2022-11-01T09:37:59.560Z,13.20
2022-11-01T09:40:36.090Z,14.50
2022-11-01T09:43:08.388Z,15.20
2022-11-01T09:45:37.395Z,13.60
2022-11-01T09:48:07.412Z,12.10
2022-11-01T09:50:40.147Z,12.50
2022-11-01T09:53:17.731Z,10.40
2022-11-01T09:55:55.965Z,11.90
2022-11-01T09:59:07.469Z,9.40
2022-11-01T10:02:26.519Z,12.70
2022-11-01T10:05:25.924Z,9.50
2022-11-01T10:08:04.076Z,9.70
2022-11-01T10:11:29.352Z,9.30
2022-11-01T10:14:27.924Z,8.10
2022-11-01T10:17:17.301Z,8.80
2022-11-01T10:19:50.065Z,6.80
2022-11-01T10:22:29.760Z,12.40
2022-11-01T10:25:05.176Z,7.30
2022-11-01T10:28:03.810Z,8.00
2022-11-01T10:30:41.761Z,9.00
2022-11-01T10:33:43.595Z,8.30
2022-11-01T10:36:21.350Z,8.20
2022-11-01T10:41:52.816Z,9.20
2022-11-01T10:44:55.273Z,9.20
2022-11-01T10:47:24.865Z,8.30
2022-11-01T10:50:07.646Z,8.20
2022-11-01T10:52:51.959Z,9.40
2022-11-01T10:55:30.074Z,7.50
2022-11-01T10:58:06.731Z,8.10
2022-11-01T11:00:40.114Z,7.60
2022-11-01T11:03:21.055Z,8.30
2022-11-01T11:05:51.268Z,8.10
2022-11-01T11:08:24.347Z,8.00
2022-11-01T11:10:57.184Z,7.90
2022-11-01T11:13:26.814Z,9.20
2022-11-01T11:16:02.370Z,7.70
2022-11-01T11:18:36.666Z,7.90
2022-11-01T11:21:11.657Z,7.30
2022-11-01T11:23:44.484Z,8.30
2022-11-01T11:26:17.537Z,7.50
2022-11-01T11:28:51.042Z,9.80
2022-11-01T11:31:32.734Z,7.40
2022-11-01T11:34:18.615Z,7.30
2022-11-01T11:36:50.082Z,7.80
2022-11-01T11:39:36.759Z,7.00
2022-11-01T11:42:19.040Z,9.00
2022-11-01T11:44:53.869Z,8.30
2022-11-01T11:47:35.779Z,7.70
2022-11-01T11:50:30.565Z,7.20
2022-11-01T11:53:07.733Z,7.60
2022-11-01T11:55:57.877Z,6.30
2022-11-01T11:58:33.335Z,5.80
2022-11-01T12:01:05.684Z,5.70
2022-11-01T12:03:49.623Z,5.50
2022-11-01T12:06:24.161Z,7.00
2022-11-01T12:09:00.322Z,4.90
2022-11-01T12:11:45.312Z,5.90
2022-11-01T12:14:24.363Z,4.30
2022-11-01T12:16:52.658Z,4.40
2022-11-01T12:19:31.328Z,8.60
2022-11-01T12:22:03.880Z,4.40
2022-11-01T12:24:50.412Z,4.60
2022-11-01T12:27:23.361Z,12.20
2022-11-01T12:30:08.678Z,5.20
2022-11-01T12:35:32.427Z,4.80
2022-11-01T12:38:31.942Z,4.90
2022-11-01T12:41:30.050Z,5.80
2022-11-01T12:44:16.764Z,6.30
2022-11-01T12:46:53.228Z,5.00
2022-11-01T12:49:52.466Z,7.30
2022-11-01T12:52:34.947Z,4.60
2022-11-01T12:55:21.178Z,6.80
2022-11-01T12:57:49.552Z,5.80
2022-11-01T13:00:21.223Z,5.90
2022-11-01T13:03:07.753Z,5.40
2022-11-01T13:06:06.410Z,6.10
2022-11-01T13:09:01.021Z,6.30
2022-11-01T13:11:48.219Z,5.70
2022-11-01T13:14:53.555Z,5.80
2022-11-01T13:17:41.321Z,6.70
2022-11-01T13:20:30.748Z,6.20
2022-11-01T13:23:08.571Z,6.90
2022-11-01T13:26:24.147Z,5.80
2022-11-01T13:29:01.455Z,6.60
2022-11-01T13:32:02.034Z,6.00
2022-11-01T13:34:43.267Z,6.00
2022-11-01T13:37:33.208Z,5.80
2022-11-01T13:40:13.621Z,6.80
2022-11-01T13:42:58.451Z,5.50
2022-11-01T13:46:09.824Z,6.20
2022-11-01T13:49:32.682Z,7.40
2022-11-01T13:52:19.402Z,6.50
2022-11-01T13:55:02.479Z,6.40
2022-11-01T13:57:31.601Z,5.70
2022-11-01T14:00:05.215Z,7.50
2022-11-01T14:02:59.037Z,7.60
2022-11-01T14:05:37.953Z,6.00
2022-11-01T14:08:12.742Z,7.60
2022-11-01T14:10:49.940Z,5.80
2022-11-01T14:13:32.236Z,5.50
2022-11-01T14:16:03.594Z,6.00
2022-11-01T14:19:02.668Z,4.40
2022-11-01T14:21:42.288Z,6.60
2022-11-01T14:24:32.196Z,5.20
2022-11-01T14:27:21.778Z,6.90
2022-11-01T14:29:51.788Z,6.40
2022-11-01T14:32:23.873Z,7.60
2022-11-01T14:35:06.187Z,11.30
2022-11-01T14:37:49.956Z,5.40
2022-11-01T14:40:33.338Z,5.70
2022-11-01T14:43:34.228Z,7.30
2022-11-01T14:46:15.732Z,5.40
2022-11-01T14:49:03.324Z,5.20
2022-11-01T14:51:52.692Z,5.80
2022-11-01T14:54:46.113Z,5.80
2022-11-01T14:57:27.263Z,6.60
2022-11-01T14:59:58.205Z,6.10
2022-11-01T15:02:28.307Z,5.10
2022-11-01T15:05:00.148Z,6.00
2022-11-01T15:07:36.934Z,6.50
2022-11-01T15:10:12.536Z,5.90
2022-11-01T15:12:54.026Z,12.30
2022-11-01T15:15:27.898Z,7.40
2022-11-01T15:18:20.886Z,8.80
2022-11-01T15:20:56.155Z,7.10
2022-11-01T15:23:37.180Z,9.60
2022-11-01T15:26:13.085Z,8.30
2022-11-01T15:28:47.805Z,8.50
2022-11-01T15:31:16.204Z,7.70
2022-11-01T15:34:19.956Z,9.20
2022-11-01T15:36:48.639Z,10.10
2022-11-01T15:39:22.978Z,9.90
2022-11-01T15:41:55.141Z,10.40
2022-11-01T15:44:26.900Z,11.10
2022-11-01T15:47:02.190Z,12.90
2022-11-01T15:49:43.136Z,16.30
2022-11-01T15:52:34.501Z,29.60
2022-11-01T15:55:25.942Z,30.40
2022-11-01T15:58:08.859Z,40.20
2022-11-01T16:00:44.430Z,26.90
2022-11-01T16:03:28.744Z,19.00
2022-11-01T16:06:06.593Z,13.40
2022-11-01T16:08:49.234Z,49.40
2022-11-01T16:11:23.918Z,24.70
2022-11-01T16:14:37.220Z,18.10
2022-11-01T16:17:23.486Z,11.40
2022-11-01T16:19:52.834Z,11.20
2022-11-01T16:22:46.463Z,10.60
2022-11-01T16:25:17.387Z,9.90
2022-11-01T16:27:55.271Z,12.40
2022-11-01T16:30:48.101Z,11.50
2022-11-01T16:33:46.543Z,11.20
2022-11-01T16:36:20.565Z,12.20
2022-11-01T16:38:53.872Z,12.90
2022-11-01T16:41:36.458Z,14.40
2022-11-01T16:44:17.305Z,14.20
2022-11-01T16:46:45.790Z,11.20
2022-11-01T16:49:13.929Z,11.80
2022-11-01T16:51:42.618Z,11.10
2022-11-01T16:54:12.143Z,13.30
2022-11-01T16:56:51.500Z,13.30
2022-11-01T16:59:35.716Z,12.80
2022-11-01T17:02:20.900Z,10.20
2022-11-01T17:04:54.102Z,14.30
2022-11-01T17:07:23.149Z,12.90
2022-11-01T17:09:51.405Z,11.50
2022-11-01T17:12:20.634Z,12.60
2022-11-01T17:14:48.877Z,12.20
2022-11-01T17:17:24.338Z,12.50
2022-11-01T17:19:59.987Z,11.90
2022-11-01T17:22:36.707Z,13.40
2022-11-01T17:25:06.451Z,12.80
2022-11-01T17:27:34.800Z,17.30
2022-11-01T17:30:03.513Z,15.50
2022-11-01T17:32:31.756Z,12.60
2022-11-01T17:34:59.994Z,13.10
2022-11-01T17:37:32.233Z,12.70
2022-11-01T17:40:01.228Z,13.10
2022-11-01T17:42:29.612Z,15.80
2022-11-01T17:45:18.027Z,13.20
2022-11-01T17:47:46.502Z,13.90
2022-11-01T17:50:16.605Z,14.70
2022-11-01T17:52:44.857Z,15.40
2022-11-01T17:55:14.383Z,12.90
2022-11-01T17:57:43.632Z,13.90
2022-11-01T18:00:12.571Z,14.30
2022-11-01T18:02:40.820Z,13.60
2022-11-01T18:05:09.458Z,15.50
2022-11-01T18:07:42.344Z,14.50
2022-11-01T18:10:40.752Z,18.60
2022-11-01T18:13:52.149Z,15.60
2022-11-01T18:16:56.875Z,14.00
2022-11-01T18:19:34.627Z,17.40
2022-11-01T18:22:19.829Z,17.80
2022-11-01T18:25:25.880Z,15.50
2022-11-01T18:27:58.249Z,19.40
2022-11-01T18:30:27.104Z,16.40
2022-11-01T18:33:11.553Z,19.70
2022-11-01T18:35:46.909Z,15.80
2022-11-01T18:38:42.565Z,18.60
2022-11-01T18:41:18.644Z,16.80
2022-11-01T18:43:46.914Z,16.70
2022-11-01T18:46:26.737Z,16.50
2022-11-01T18:49:00.684Z,14.10
2022-11-01T18:51:32.503Z,15.20
2022-11-01T18:54:09.755Z,15.00
2022-11-01T18:56:48.215Z,14.30
2022-11-01T18:59:27.423Z,15.40
2022-11-01T19:02:12.298Z,14.90
2022-11-01T19:04:43.147Z,16.90
2022-11-01T19:07:14.618Z,16.20
2022-11-01T19:09:53.499Z,15.60
2022-11-01T19:12:29.831Z,18.00
2022-11-01T19:15:36.757Z,16.90
2022-11-01T19:18:19.068Z,18.50
2022-11-01T19:20:53.115Z,19.50
2022-11-01T19:23:36.557Z,17.00
2022-11-01T19:26:27.114Z,19.30
2022-11-01T19:28:55.354Z,28.20
2022-11-01T19:31:33.287Z,26.60
2022-11-01T19:34:20.689Z,21.90
2022-11-01T19:36:50.103Z,19.00
2022-11-01T19:39:26.332Z,19.40
2022-11-01T19:42:00.444Z,18.50
2022-11-01T19:44:30.716Z,20.80
2022-11-01T19:47:36.252Z,19.90
2022-11-01T19:50:16.665Z,17.50
2022-11-01T19:52:47.450Z,18.20
2022-11-01T19:55:46.619Z,18.40
2022-11-01T19:58:48.937Z,19.90
2022-11-01T20:01:17.251Z,21.70
2022-11-01T20:03:48.055Z,17.80
2022-11-01T20:06:37.287Z,19.20
2022-11-01T20:09:19.317Z,17.70
2022-11-01T20:11:47.615Z,17.70
2022-11-01T20:14:15.927Z,19.50
2022-11-01T20:16:44.377Z,21.30
2022-11-01T20:19:16.381Z,18.10
2022-11-01T20:21:46.885Z,19.90
2022-11-01T20:24:16.011Z,18.30
2022-11-01T20:26:44.480Z,22.20
2022-11-01T20:29:12.751Z,19.50
2022-11-01T20:31:41.074Z,18.70
2022-11-01T20:34:09.424Z,17.80
2022-11-01T20:36:38.695Z,17.40
2022-11-01T20:39:09.165Z,16.10
2022-11-01T20:41:40.077Z,18.20
2022-11-01T20:44:08.274Z,16.70
2022-11-01T20:46:36.500Z,18.80
2022-11-01T20:49:04.964Z,16.90
2022-11-01T20:51:33.212Z,18.20
2022-11-01T20:54:01.471Z,19.80
2022-11-01T20:56:29.746Z,16.30
2022-11-01T20:58:58.311Z,15.00
2022-11-01T21:01:26.962Z,17.20
2022-11-01T21:03:55.362Z,18.30
2022-11-01T21:06:28.281Z,16.00
2022-11-01T21:08:57.269Z,18.60
2022-11-01T21:11:47.015Z,17.10
2022-11-01T21:14:18.939Z,18.90
2022-11-01T21:16:48.498Z,16.10
2022-11-01T21:19:22.497Z,18.50
2022-11-01T21:21:56.294Z,17.50
2022-11-01T21:24:36.346Z,15.00
2022-11-01T21:27:23.832Z,18.70
2022-11-01T21:30:00.660Z,18.80
2022-11-01T21:32:35.062Z,18.80
2022-11-01T21:35:38.041Z,21.60
2022-11-01T21:38:40.451Z,19.00
2022-11-01T21:41:39.052Z,16.00
2022-11-01T21:44:24.098Z,17.70
2022-11-01T21:46:58.498Z,21.50
2022-11-01T21:49:30.738Z,17.80
2022-11-01T21:52:05.522Z,18.60
2022-11-01T21:54:36.870Z,16.90
2022-11-01T21:57:09.179Z,17.40
2022-11-01T21:59:37.824Z,16.20
2022-11-01T22:02:09.901Z,18.90
2022-11-01T22:04:38.453Z,20.30
2022-11-01T22:07:08.714Z,22.80
2022-11-01T22:09:38.755Z,18.20
2022-11-01T22:12:07.855Z,19.30
2022-11-01T22:14:37.395Z,22.50
2022-11-01T22:17:05.690Z,25.50
2022-11-01T22:19:33.926Z,22.60
2022-11-01T22:22:02.212Z,22.20
2022-11-01T22:24:31.022Z,24.30
2022-11-01T22:26:59.261Z,29.00
2022-11-01T22:29:27.544Z,26.50
2022-11-01T22:31:55.790Z,25.60
2022-11-01T22:34:24.142Z,25.80
2022-11-01T22:36:52.404Z,22.70
2022-11-01T22:39:23.572Z,21.90
2022-11-01T22:41:52.277Z,29.80
2022-11-01T22:44:27.112Z,22.80
2022-11-01T22:46:59.495Z,22.70
2022-11-01T22:49:45.618Z,22.30
2022-11-01T22:52:30.061Z,24.60
2022-11-01T22:55:24.973Z,22.40
2022-11-01T22:58:03.889Z,23.70
2022-11-01T23:00:39.485Z,23.90
2022-11-01T23:03:23.529Z,25.70
2022-11-01T23:05:59.682Z,23.90
2022-11-01T23:08:35.375Z,25.20
2022-11-01T23:11:04.718Z,26.00
2022-11-01T23:13:55.816Z,24.90
2022-11-01T23:16:38.134Z,20.60
2022-11-01T23:19:13.203Z,30.50
2022-11-01T23:21:41.633Z,24.50
2022-11-01T23:24:09.969Z,24.90
2022-11-01T23:26:38.243Z,24.90
2022-11-01T23:29:06.490Z,23.70
2022-11-01T23:31:34.838Z,21.70
2022-11-01T23:34:03.205Z,25.60
2022-11-01T23:36:38.049Z,24.70
2022-11-01T23:39:11.952Z,27.30
2022-11-01T23:41:45.289Z,27.20
2022-11-01T23:44:33.673Z,22.70
2022-11-01T23:47:25.611Z,30.10
2022-11-01T23:50:05.100Z,22.20
2022-11-01T23:52:40.764Z,20.70
2022-11-01T23:55:31.767Z,27.10
2022-11-01T23:58:03.228Z,23.40
